sensor_id;sensor_type;location;lat;lon;timestamp;temperature;humidity
49765;DHT22;35657;51.204;-4.130;2023-09-18T00:00:46;16.80;99.90
49765;DHT22;35657;51.204;-4.130;2023-09-18T00:03:15;16.80;99.90
49765;DHT22;35657;51.204;-4.130;2023-09-18T00:05:43;16.80;99.90
49765;DHT22;35657;51.204;-4.130;2023-09-18T00:08:09;16.70;99.90
49765;DHT22;35657;51.204;-4.130;2023-09-18T00:10:35;16.70;99.90
49765;DHT22;35657;51.204;-4.130;2023-09-18T00:13:00;16.80;99.90
49765;DHT22;35657;51.204;-4.130;2023-09-18T00:15:26;16.70;99.90
49765;DHT22;35657;51.204;-4.130;2023-09-18T00:17:52;16.70;99.90
49765;DHT22;35657;51.204;-4.130;2023-09-18T00:20:18;16.70;99.90
49765;DHT22;35657;51.204;-4.130;2023-09-18T00:22:44;16.70;99.90
49765;DHT22;35657;51.204;-4.130;2023-09-18T00:25:10;16.70;99.90
49765;DHT22;35657;51.204;-4.130;2023-09-18T00:27:35;16.70;99.90
49765;DHT22;35657;51.204;-4.130;2023-09-18T00:30:04;16.70;99.90
49765;DHT22;35657;51.204;-4.130;2023-09-18T00:32:30;16.70;99.90
49765;DHT22;35657;51.204;-4.130;2023-09-18T00:34:56;16.70;99.90
49765;DHT22;35657;51.204;-4.130;2023-09-18T00:37:22;16.60;99.90
49765;DHT22;35657;51.204;-4.130;2023-09-18T00:39:49;16.60;99.90
49765;DHT22;35657;51.204;-4.130;2023-09-18T00:42:15;16.60;99.90
49765;DHT22;35657;51.204;-4.130;2023-09-18T00:44:43;16.60;99.90
49765;DHT22;35657;51.204;-4.130;2023-09-18T00:47:10;16.60;99.90
49765;DHT22;35657;51.204;-4.130;2023-09-18T00:49:39;16.60;99.90
49765;DHT22;35657;51.204;-4.130;2023-09-18T00:52:06;16.60;99.90
49765;DHT22;35657;51.204;-4.130;2023-09-18T00:54:33;16.60;99.90
49765;DHT22;35657;51.204;-4.130;2023-09-18T00:57:00;16.50;99.90
49765;DHT22;35657;51.204;-4.130;2023-09-18T00:59:26;16.50;99.90
49765;DHT22;35657;51.204;-4.130;2023-09-18T01:01:52;16.50;99.90
49765;DHT22;35657;51.204;-4.130;2023-09-18T01:04:19;16.50;99.90
49765;DHT22;35657;51.204;-4.130;2023-09-18T01:06:45;16.50;99.90
49765;DHT22;35657;51.204;-4.130;2023-09-18T01:09:11;16.50;99.90
49765;DHT22;35657;51.204;-4.130;2023-09-18T01:14:40;16.50;99.90
49765;DHT22;35657;51.204;-4.130;2023-09-18T01:17:09;16.50;99.90
49765;DHT22;35657;51.204;-4.130;2023-09-18T01:19:42;16.40;99.90
49765;DHT22;35657;51.204;-4.130;2023-09-18T01:22:11;16.40;99.90
49765;DHT22;35657;51.204;-4.130;2023-09-18T01:24:38;16.40;99.90
49765;DHT22;35657;51.204;-4.130;2023-09-18T01:27:06;16.40;99.90
49765;DHT22;35657;51.204;-4.130;2023-09-18T01:29:32;16.40;99.90
49765;DHT22;35657;51.204;-4.130;2023-09-18T01:31:58;16.40;99.90
49765;DHT22;35657;51.204;-4.130;2023-09-18T01:34:54;16.40;99.90
49765;DHT22;35657;51.204;-4.130;2023-09-18T01:37:21;16.40;99.90
49765;DHT22;35657;51.204;-4.130;2023-09-18T01:39:50;16.40;99.90
49765;DHT22;35657;51.204;-4.130;2023-09-18T01:42:16;16.40;99.90
49765;DHT22;35657;51.204;-4.130;2023-09-18T01:44:43;16.40;99.90
49765;DHT22;35657;51.204;-4.130;2023-09-18T01:47:13;16.40;99.90
49765;DHT22;35657;51.204;-4.130;2023-09-18T01:49:40;16.30;99.90
49765;DHT22;35657;51.204;-4.130;2023-09-18T01:52:07;16.30;99.90
49765;DHT22;35657;51.204;-4.130;2023-09-18T01:54:34;16.40;99.90
49765;DHT22;35657;51.204;-4.130;2023-09-18T01:57:00;16.30;99.90
49765;DHT22;35657;51.204;-4.130;2023-09-18T01:59:27;16.40;99.90
49765;DHT22;35657;51.204;-4.130;2023-09-18T02:01:53;16.40;99.90
49765;DHT22;35657;51.204;-4.130;2023-09-18T02:04:20;16.30;99.90
49765;DHT22;35657;51.204;-4.130;2023-09-18T02:06:47;16.30;99.90
49765;DHT22;35657;51.204;-4.130;2023-09-18T02:09:13;16.30;99.90
49765;DHT22;35657;51.204;-4.130;2023-09-18T02:11:41;16.30;99.90
49765;DHT22;35657;51.204;-4.130;2023-09-18T02:14:08;16.30;99.90
49765;DHT22;35657;51.204;-4.130;2023-09-18T02:16:35;16.30;99.90
49765;DHT22;35657;51.204;-4.130;2023-09-18T02:19:02;16.20;99.90
49765;DHT22;35657;51.204;-4.130;2023-09-18T02:21:28;16.30;99.90
49765;DHT22;35657;51.204;-4.130;2023-09-18T02:23:54;16.30;99.90
49765;DHT22;35657;51.204;-4.130;2023-09-18T02:26:23;16.20;99.90
49765;DHT22;35657;51.204;-4.130;2023-09-18T02:28:51;16.20;99.90
49765;DHT22;35657;51.204;-4.130;2023-09-18T02:31:17;16.20;99.90
49765;DHT22;35657;51.204;-4.130;2023-09-18T02:33:43;16.30;99.90
49765;DHT22;35657;51.204;-4.130;2023-09-18T02:36:10;16.20;99.90
49765;DHT22;35657;51.204;-4.130;2023-09-18T02:38:36;16.20;99.90
49765;DHT22;35657;51.204;-4.130;2023-09-18T02:41:02;16.20;99.90
49765;DHT22;35657;51.204;-4.130;2023-09-18T02:43:27;16.10;99.90
49765;DHT22;35657;51.204;-4.130;2023-09-18T02:45:53;16.10;99.90
49765;DHT22;35657;51.204;-4.130;2023-09-18T02:48:19;16.10;99.90
49765;DHT22;35657;51.204;-4.130;2023-09-18T02:50:45;16.10;99.90
49765;DHT22;35657;51.204;-4.130;2023-09-18T02:53:22;16.10;99.90
49765;DHT22;35657;51.204;-4.130;2023-09-18T02:55:53;16.10;99.90
49765;DHT22;35657;51.204;-4.130;2023-09-18T02:58:19;16.00;99.90
49765;DHT22;35657;51.204;-4.130;2023-09-18T03:00:46;15.90;99.90
49765;DHT22;35657;51.204;-4.130;2023-09-18T03:03:13;16.00;99.90
49765;DHT22;35657;51.204;-4.130;2023-09-18T03:05:40;16.00;99.90
49765;DHT22;35657;51.204;-4.130;2023-09-18T03:08:06;16.10;99.90
49765;DHT22;35657;51.204;-4.130;2023-09-18T03:10:36;16.00;99.90
49765;DHT22;35657;51.204;-4.130;2023-09-18T03:13:03;16.00;99.90
49765;DHT22;35657;51.204;-4.130;2023-09-18T03:15:30;16.00;99.90
49765;DHT22;35657;51.204;-4.130;2023-09-18T03:17:57;16.10;99.90
49765;DHT22;35657;51.204;-4.130;2023-09-18T03:20:26;16.00;99.90
49765;DHT22;35657;51.204;-4.130;2023-09-18T03:22:55;16.00;99.90
49765;DHT22;35657;51.204;-4.130;2023-09-18T03:25:22;16.00;99.90
49765;DHT22;35657;51.204;-4.130;2023-09-18T03:27:49;16.00;99.90
49765;DHT22;35657;51.204;-4.130;2023-09-18T03:30:15;15.90;99.90
49765;DHT22;35657;51.204;-4.130;2023-09-18T03:32:43;16.00;99.90
49765;DHT22;35657;51.204;-4.130;2023-09-18T03:35:10;16.00;99.90
49765;DHT22;35657;51.204;-4.130;2023-09-18T03:37:51;15.90;99.90
49765;DHT22;35657;51.204;-4.130;2023-09-18T03:40:19;15.90;99.90
49765;DHT22;35657;51.204;-4.130;2023-09-18T03:42:46;16.00;99.90
49765;DHT22;35657;51.204;-4.130;2023-09-18T03:45:12;16.00;99.90
49765;DHT22;35657;51.204;-4.130;2023-09-18T03:47:39;15.90;99.90
49765;DHT22;35657;51.204;-4.130;2023-09-18T03:50:06;15.90;99.90
49765;DHT22;35657;51.204;-4.130;2023-09-18T03:52:32;16.00;99.90
49765;DHT22;35657;51.204;-4.130;2023-09-18T03:54:58;16.00;99.90
49765;DHT22;35657;51.204;-4.130;2023-09-18T03:57:24;16.10;99.90
49765;DHT22;35657;51.204;-4.130;2023-09-18T03:59:50;16.10;99.90
49765;DHT22;35657;51.204;-4.130;2023-09-18T04:02:15;16.00;99.90
49765;DHT22;35657;51.204;-4.130;2023-09-18T04:04:41;16.00;99.90
49765;DHT22;35657;51.204;-4.130;2023-09-18T04:07:07;16.00;99.90
49765;DHT22;35657;51.204;-4.130;2023-09-18T04:09:33;16.00;99.90
49765;DHT22;35657;51.204;-4.130;2023-09-18T04:12:01;16.00;99.90
49765;DHT22;35657;51.204;-4.130;2023-09-18T04:14:27;16.00;99.90
49765;DHT22;35657;51.204;-4.130;2023-09-18T04:16:52;15.90;99.90
49765;DHT22;35657;51.204;-4.130;2023-09-18T04:19:18;15.90;99.90
49765;DHT22;35657;51.204;-4.130;2023-09-18T04:21:44;15.90;99.90
49765;DHT22;35657;51.204;-4.130;2023-09-18T04:24:10;15.90;99.90
49765;DHT22;35657;51.204;-4.130;2023-09-18T04:26:36;15.90;99.90
49765;DHT22;35657;51.204;-4.130;2023-09-18T04:29:03;15.90;99.90
49765;DHT22;35657;51.204;-4.130;2023-09-18T04:31:29;15.80;99.90
49765;DHT22;35657;51.204;-4.130;2023-09-18T04:33:55;15.90;99.90
49765;DHT22;35657;51.204;-4.130;2023-09-18T04:36:21;15.90;99.90
49765;DHT22;35657;51.204;-4.130;2023-09-18T04:38:47;15.90;99.90
49765;DHT22;35657;51.204;-4.130;2023-09-18T04:41:14;15.90;99.90
49765;DHT22;35657;51.204;-4.130;2023-09-18T04:43:40;15.90;99.90
49765;DHT22;35657;51.204;-4.130;2023-09-18T04:46:07;15.90;99.90
49765;DHT22;35657;51.204;-4.130;2023-09-18T04:48:33;16.00;99.90
49765;DHT22;35657;51.204;-4.130;2023-09-18T04:50:59;16.00;99.90
49765;DHT22;35657;51.204;-4.130;2023-09-18T04:53:25;16.00;99.90
49765;DHT22;35657;51.204;-4.130;2023-09-18T04:55:52;16.00;99.90
49765;DHT22;35657;51.204;-4.130;2023-09-18T04:58:18;16.00;99.90
49765;DHT22;35657;51.204;-4.130;2023-09-18T05:00:44;16.00;99.90
49765;DHT22;35657;51.204;-4.130;2023-09-18T05:03:10;16.00;99.90
49765;DHT22;35657;51.204;-4.130;2023-09-18T05:05:36;16.10;99.90
49765;DHT22;35657;51.204;-4.130;2023-09-18T05:08:06;16.00;99.90
49765;DHT22;35657;51.204;-4.130;2023-09-18T05:10:36;16.10;99.90
49765;DHT22;35657;51.204;-4.130;2023-09-18T05:13:03;16.00;99.90
49765;DHT22;35657;51.204;-4.130;2023-09-18T05:15:29;16.10;99.90
49765;DHT22;35657;51.204;-4.130;2023-09-18T05:17:56;16.10;99.90
49765;DHT22;35657;51.204;-4.130;2023-09-18T05:20:24;16.10;99.90
49765;DHT22;35657;51.204;-4.130;2023-09-18T05:22:54;16.10;99.90
49765;DHT22;35657;51.204;-4.130;2023-09-18T05:25:22;16.10;99.90
49765;DHT22;35657;51.204;-4.130;2023-09-18T05:27:50;16.10;99.90
49765;DHT22;35657;51.204;-4.130;2023-09-18T05:30:28;16.10;99.90
49765;DHT22;35657;51.204;-4.130;2023-09-18T05:32:58;16.10;99.90
49765;DHT22;35657;51.204;-4.130;2023-09-18T05:35:43;16.10;99.90
49765;DHT22;35657;51.204;-4.130;2023-09-18T05:38:12;16.00;99.90
49765;DHT22;35657;51.204;-4.130;2023-09-18T05:40:42;16.10;99.90
49765;DHT22;35657;51.204;-4.130;2023-09-18T05:43:09;16.20;99.90
49765;DHT22;35657;51.204;-4.130;2023-09-18T05:45:35;16.20;99.90
49765;DHT22;35657;51.204;-4.130;2023-09-18T05:48:01;16.20;99.90
49765;DHT22;35657;51.204;-4.130;2023-09-18T05:50:30;16.10;99.90
49765;DHT22;35657;51.204;-4.130;2023-09-18T05:52:57;16.00;99.90
49765;DHT22;35657;51.204;-4.130;2023-09-18T05:55:29;16.00;99.90
49765;DHT22;35657;51.204;-4.130;2023-09-18T05:57:55;16.00;99.90
49765;DHT22;35657;51.204;-4.130;2023-09-18T06:00:22;16.00;99.90
49765;DHT22;35657;51.204;-4.130;2023-09-18T06:02:48;15.90;99.90
49765;DHT22;35657;51.204;-4.130;2023-09-18T06:05:14;15.90;99.90
49765;DHT22;35657;51.204;-4.130;2023-09-18T06:07:41;15.90;99.90
49765;DHT22;35657;51.204;-4.130;2023-09-18T06:10:07;15.90;99.90
49765;DHT22;35657;51.204;-4.130;2023-09-18T06:12:33;15.90;99.90
49765;DHT22;35657;51.204;-4.130;2023-09-18T06:14:59;15.90;99.90
49765;DHT22;35657;51.204;-4.130;2023-09-18T06:17:25;15.90;99.90
49765;DHT22;35657;51.204;-4.130;2023-09-18T06:19:50;15.90;99.90
49765;DHT22;35657;51.204;-4.130;2023-09-18T06:22:17;15.90;99.90
49765;DHT22;35657;51.204;-4.130;2023-09-18T06:24:43;15.90;99.90
49765;DHT22;35657;51.204;-4.130;2023-09-18T06:27:09;16.00;99.90
49765;DHT22;35657;51.204;-4.130;2023-09-18T06:29:36;16.10;99.90
49765;DHT22;35657;51.204;-4.130;2023-09-18T06:32:04;16.10;99.90
49765;DHT22;35657;51.204;-4.130;2023-09-18T06:34:30;16.20;99.90
49765;DHT22;35657;51.204;-4.130;2023-09-18T06:36:56;16.20;99.90
49765;DHT22;35657;51.204;-4.130;2023-09-18T06:39:21;16.30;99.90
49765;DHT22;35657;51.204;-4.130;2023-09-18T06:41:49;16.20;99.90
49765;DHT22;35657;51.204;-4.130;2023-09-18T06:44:15;16.20;99.90
49765;DHT22;35657;51.204;-4.130;2023-09-18T06:46:41;16.20;99.90
49765;DHT22;35657;51.204;-4.130;2023-09-18T06:49:07;16.10;99.90
49765;DHT22;35657;51.204;-4.130;2023-09-18T06:51:32;16.10;99.90
49765;DHT22;35657;51.204;-4.130;2023-09-18T06:53:58;16.10;99.90
49765;DHT22;35657;51.204;-4.130;2023-09-18T06:56:24;16.10;99.90
49765;DHT22;35657;51.204;-4.130;2023-09-18T06:58:50;16.10;99.90
49765;DHT22;35657;51.204;-4.130;2023-09-18T07:01:20;16.20;99.90
49765;DHT22;35657;51.204;-4.130;2023-09-18T07:03:47;16.20;99.90
49765;DHT22;35657;51.204;-4.130;2023-09-18T07:06:16;16.20;99.90
49765;DHT22;35657;51.204;-4.130;2023-09-18T07:08:43;16.10;99.90
49765;DHT22;35657;51.204;-4.130;2023-09-18T07:11:09;16.20;99.90
49765;DHT22;35657;51.204;-4.130;2023-09-18T07:13:35;16.20;99.90
49765;DHT22;35657;51.204;-4.130;2023-09-18T07:16:01;16.20;99.90
49765;DHT22;35657;51.204;-4.130;2023-09-18T07:18:28;16.20;99.90
49765;DHT22;35657;51.204;-4.130;2023-09-18T07:20:54;16.30;99.90
49765;DHT22;35657;51.204;-4.130;2023-09-18T07:23:20;16.30;99.90
49765;DHT22;35657;51.204;-4.130;2023-09-18T07:25:47;16.30;99.90
49765;DHT22;35657;51.204;-4.130;2023-09-18T07:28:13;16.20;99.90
49765;DHT22;35657;51.204;-4.130;2023-09-18T07:30:43;16.10;99.90
49765;DHT22;35657;51.204;-4.130;2023-09-18T07:33:10;16.10;99.90
49765;DHT22;35657;51.204;-4.130;2023-09-18T07:35:36;16.00;99.90
49765;DHT22;35657;51.204;-4.130;2023-09-18T07:38:01;16.00;99.90
49765;DHT22;35657;51.204;-4.130;2023-09-18T07:40:27;16.00;99.90
49765;DHT22;35657;51.204;-4.130;2023-09-18T07:42:53;15.90;99.90
49765;DHT22;35657;51.204;-4.130;2023-09-18T07:45:19;16.00;99.90
49765;DHT22;35657;51.204;-4.130;2023-09-18T07:47:44;16.00;99.90
49765;DHT22;35657;51.204;-4.130;2023-09-18T07:50:10;15.90;99.90
49765;DHT22;35657;51.204;-4.130;2023-09-18T07:52:36;15.90;99.90
49765;DHT22;35657;51.204;-4.130;2023-09-18T07:55:02;15.90;99.90
49765;DHT22;35657;51.204;-4.130;2023-09-18T07:57:28;16.00;99.90
49765;DHT22;35657;51.204;-4.130;2023-09-18T07:59:55;16.00;99.90
49765;DHT22;35657;51.204;-4.130;2023-09-18T08:02:21;16.00;99.90
49765;DHT22;35657;51.204;-4.130;2023-09-18T08:04:48;16.00;99.90
49765;DHT22;35657;51.204;-4.130;2023-09-18T08:07:14;16.00;99.90
49765;DHT22;35657;51.204;-4.130;2023-09-18T08:09:40;16.00;99.90
49765;DHT22;35657;51.204;-4.130;2023-09-18T08:12:07;16.00;99.90
49765;DHT22;35657;51.204;-4.130;2023-09-18T08:14:34;16.00;99.90
49765;DHT22;35657;51.204;-4.130;2023-09-18T08:17:03;16.00;99.90
49765;DHT22;35657;51.204;-4.130;2023-09-18T08:19:33;16.00;99.90
49765;DHT22;35657;51.204;-4.130;2023-09-18T08:21:58;15.90;99.90
49765;DHT22;35657;51.204;-4.130;2023-09-18T08:24:27;15.90;99.90
49765;DHT22;35657;51.204;-4.130;2023-09-18T08:26:53;15.90;99.90
49765;DHT22;35657;51.204;-4.130;2023-09-18T08:29:19;15.80;99.90
49765;DHT22;35657;51.204;-4.130;2023-09-18T08:31:46;15.80;99.90
49765;DHT22;35657;51.204;-4.130;2023-09-18T08:34:12;15.80;99.90
49765;DHT22;35657;51.204;-4.130;2023-09-18T08:36:38;15.70;99.90
49765;DHT22;35657;51.204;-4.130;2023-09-18T08:39:03;15.70;99.90
49765;DHT22;35657;51.204;-4.130;2023-09-18T08:41:33;15.70;99.90
49765;DHT22;35657;51.204;-4.130;2023-09-18T08:44:03;15.70;99.90
49765;DHT22;35657;51.204;-4.130;2023-09-18T08:46:32;15.70;99.90
49765;DHT22;35657;51.204;-4.130;2023-09-18T08:49:00;15.70;99.90
49765;DHT22;35657;51.204;-4.130;2023-09-18T08:51:27;15.70;99.90
49765;DHT22;35657;51.204;-4.130;2023-09-18T08:53:54;15.70;99.90
49765;DHT22;35657;51.204;-4.130;2023-09-18T08:56:21;15.70;99.90
49765;DHT22;35657;51.204;-4.130;2023-09-18T08:58:47;15.70;99.90
49765;DHT22;35657;51.204;-4.130;2023-09-18T09:01:13;15.70;99.90
49765;DHT22;35657;51.204;-4.130;2023-09-18T09:03:43;15.70;99.90
49765;DHT22;35657;51.204;-4.130;2023-09-18T09:06:12;15.70;99.90
49765;DHT22;35657;51.204;-4.130;2023-09-18T09:08:39;15.60;99.90
49765;DHT22;35657;51.204;-4.130;2023-09-18T09:11:04;15.60;99.90
49765;DHT22;35657;51.204;-4.130;2023-09-18T09:13:30;15.60;99.90
49765;DHT22;35657;51.204;-4.130;2023-09-18T09:15:57;15.60;99.90
49765;DHT22;35657;51.204;-4.130;2023-09-18T09:18:26;15.60;99.90
49765;DHT22;35657;51.204;-4.130;2023-09-18T09:21:00;15.60;99.90
49765;DHT22;35657;51.204;-4.130;2023-09-18T09:23:28;15.60;99.90
49765;DHT22;35657;51.204;-4.130;2023-09-18T09:26:16;15.60;99.90
49765;DHT22;35657;51.204;-4.130;2023-09-18T09:28:42;15.70;99.90
49765;DHT22;35657;51.204;-4.130;2023-09-18T09:31:09;15.70;99.90
49765;DHT22;35657;51.204;-4.130;2023-09-18T09:33:36;15.70;99.90
49765;DHT22;35657;51.204;-4.130;2023-09-18T09:36:05;15.80;99.90
49765;DHT22;35657;51.204;-4.130;2023-09-18T09:38:32;15.90;99.90
49765;DHT22;35657;51.204;-4.130;2023-09-18T09:41:00;15.90;99.90
49765;DHT22;35657;51.204;-4.130;2023-09-18T09:43:27;15.90;99.90
49765;DHT22;35657;51.204;-4.130;2023-09-18T09:46:00;15.90;99.90
49765;DHT22;35657;51.204;-4.130;2023-09-18T09:48:27;16.00;99.90
49765;DHT22;35657;51.204;-4.130;2023-09-18T09:51:00;16.00;99.90
49765;DHT22;35657;51.204;-4.130;2023-09-18T09:53:45;16.10;99.90
49765;DHT22;35657;51.204;-4.130;2023-09-18T09:56:16;16.20;99.90
49765;DHT22;35657;51.204;-4.130;2023-09-18T09:59:05;16.20;99.90
49765;DHT22;35657;51.204;-4.130;2023-09-18T10:01:35;16.20;99.90
49765;DHT22;35657;51.204;-4.130;2023-09-18T10:04:08;16.00;99.90
49765;DHT22;35657;51.204;-4.130;2023-09-18T10:06:35;16.20;99.90
49765;DHT22;35657;51.204;-4.130;2023-09-18T10:09:06;16.10;99.90
49765;DHT22;35657;51.204;-4.130;2023-09-18T10:11:34;16.30;99.90
49765;DHT22;35657;51.204;-4.130;2023-09-18T10:14:09;16.30;99.90
49765;DHT22;35657;51.204;-4.130;2023-09-18T10:16:40;16.40;99.90
49765;DHT22;35657;51.204;-4.130;2023-09-18T10:19:27;16.50;99.90
49765;DHT22;35657;51.204;-4.130;2023-09-18T10:24:39;16.60;99.90
49765;DHT22;35657;51.204;-4.130;2023-09-18T10:27:07;16.70;99.90
49765;DHT22;35657;51.204;-4.130;2023-09-18T10:29:36;16.90;99.90
49765;DHT22;35657;51.204;-4.130;2023-09-18T10:32:06;17.00;99.90
49765;DHT22;35657;51.204;-4.130;2023-09-18T10:34:35;16.90;99.90
49765;DHT22;35657;51.204;-4.130;2023-09-18T10:37:03;17.10;99.90
49765;DHT22;35657;51.204;-4.130;2023-09-18T10:39:36;17.30;99.90
49765;DHT22;35657;51.204;-4.130;2023-09-18T10:42:03;17.40;99.90
49765;DHT22;35657;51.204;-4.130;2023-09-18T10:44:30;17.00;99.90
49765;DHT22;35657;51.204;-4.130;2023-09-18T10:46:57;16.70;99.90
49765;DHT22;35657;51.204;-4.130;2023-09-18T10:49:24;16.70;99.90
49765;DHT22;35657;51.204;-4.130;2023-09-18T10:51:54;16.50;99.90
49765;DHT22;35657;51.204;-4.130;2023-09-18T10:54:23;16.30;99.90
49765;DHT22;35657;51.204;-4.130;2023-09-18T10:56:49;16.30;99.90
49765;DHT22;35657;51.204;-4.130;2023-09-18T10:59:15;16.30;99.90
49765;DHT22;35657;51.204;-4.130;2023-09-18T11:01:42;16.20;99.90
49765;DHT22;35657;51.204;-4.130;2023-09-18T11:04:08;16.20;99.90
49765;DHT22;35657;51.204;-4.130;2023-09-18T11:09:23;16.30;99.90
49765;DHT22;35657;51.204;-4.130;2023-09-18T11:22:58;16.80;99.90
49765;DHT22;35657;51.204;-4.130;2023-09-18T11:25:44;17.00;99.90
49765;DHT22;35657;51.204;-4.130;2023-09-18T11:28:15;17.00;99.90
49765;DHT22;35657;51.204;-4.130;2023-09-18T11:30:57;17.10;99.90
49765;DHT22;35657;51.204;-4.130;2023-09-18T11:33:33;17.10;99.90
49765;DHT22;35657;51.204;-4.130;2023-09-18T11:38:30;17.20;99.90
49765;DHT22;35657;51.204;-4.130;2023-09-18T11:40:56;17.20;99.90
49765;DHT22;35657;51.204;-4.130;2023-09-18T11:43:28;17.20;99.90
49765;DHT22;35657;51.204;-4.130;2023-09-18T11:46:00;17.30;99.90
49765;DHT22;35657;51.204;-4.130;2023-09-18T11:48:30;17.50;99.90
49765;DHT22;35657;51.204;-4.130;2023-09-18T11:51:02;17.50;99.90
49765;DHT22;35657;51.204;-4.130;2023-09-18T11:53:34;17.60;99.90
49765;DHT22;35657;51.204;-4.130;2023-09-18T11:56:02;17.80;99.90
49765;DHT22;35657;51.204;-4.130;2023-09-18T11:58:29;17.80;99.90
49765;DHT22;35657;51.204;-4.130;2023-09-18T12:00:54;16.90;99.90
49765;DHT22;35657;51.204;-4.130;2023-09-18T12:03:22;16.70;99.90
49765;DHT22;35657;51.204;-4.130;2023-09-18T12:06:02;16.70;99.90
49765;DHT22;35657;51.204;-4.130;2023-09-18T12:08:31;16.80;99.90
49765;DHT22;35657;51.204;-4.130;2023-09-18T12:10:57;16.50;99.90
49765;DHT22;35657;51.204;-4.130;2023-09-18T12:13:27;16.50;99.90
49765;DHT22;35657;51.204;-4.130;2023-09-18T12:15:59;16.50;99.90
49765;DHT22;35657;51.204;-4.130;2023-09-18T12:18:27;16.40;99.90
49765;DHT22;35657;51.204;-4.130;2023-09-18T12:20:57;16.50;99.90
49765;DHT22;35657;51.204;-4.130;2023-09-18T12:23:24;16.40;99.90
49765;DHT22;35657;51.204;-4.130;2023-09-18T12:25:58;16.70;99.90
49765;DHT22;35657;51.204;-4.130;2023-09-18T12:28:26;16.80;99.90
49765;DHT22;35657;51.204;-4.130;2023-09-18T12:30:56;16.80;99.90
49765;DHT22;35657;51.204;-4.130;2023-09-18T12:33:22;16.70;99.90
49765;DHT22;35657;51.204;-4.130;2023-09-18T12:35:50;16.50;99.90
49765;DHT22;35657;51.204;-4.130;2023-09-18T12:38:17;16.80;99.90
49765;DHT22;35657;51.204;-4.130;2023-09-18T12:40:52;16.90;99.90
49765;DHT22;35657;51.204;-4.130;2023-09-18T12:43:18;16.90;99.90
49765;DHT22;35657;51.204;-4.130;2023-09-18T12:45:45;16.80;99.90
49765;DHT22;35657;51.204;-4.130;2023-09-18T12:48:13;16.60;99.90
49765;DHT22;35657;51.204;-4.130;2023-09-18T12:50:39;16.80;99.90
49765;DHT22;35657;51.204;-4.130;2023-09-18T12:53:12;17.00;99.90
49765;DHT22;35657;51.204;-4.130;2023-09-18T12:55:40;17.00;99.90
49765;DHT22;35657;51.204;-4.130;2023-09-18T12:58:06;17.00;99.90
49765;DHT22;35657;51.204;-4.130;2023-09-18T13:00:35;17.20;99.90
49765;DHT22;35657;51.204;-4.130;2023-09-18T13:03:03;17.40;99.90
49765;DHT22;35657;51.204;-4.130;2023-09-18T13:05:30;17.50;99.90
49765;DHT22;35657;51.204;-4.130;2023-09-18T13:08:02;17.30;99.90
49765;DHT22;35657;51.204;-4.130;2023-09-18T13:10:28;17.30;99.90
49765;DHT22;35657;51.204;-4.130;2023-09-18T13:12:54;17.40;99.90
49765;DHT22;35657;51.204;-4.130;2023-09-18T13:15:34;17.60;99.90
49765;DHT22;35657;51.204;-4.130;2023-09-18T13:18:08;17.50;99.90
49765;DHT22;35657;51.204;-4.130;2023-09-18T13:20:34;17.40;99.90
49765;DHT22;35657;51.204;-4.130;2023-09-18T13:23:00;17.40;99.90
49765;DHT22;35657;51.204;-4.130;2023-09-18T13:27:54;17.40;99.90
49765;DHT22;35657;51.204;-4.130;2023-09-18T13:30:21;17.30;99.90
49765;DHT22;35657;51.204;-4.130;2023-09-18T13:32:49;17.50;99.90
49765;DHT22;35657;51.204;-4.130;2023-09-18T13:35:19;17.60;99.90
49765;DHT22;35657;51.204;-4.130;2023-09-18T13:37:45;17.50;99.90
49765;DHT22;35657;51.204;-4.130;2023-09-18T13:40:11;17.40;99.90
49765;DHT22;35657;51.204;-4.130;2023-09-18T13:42:38;17.50;99.90
49765;DHT22;35657;51.204;-4.130;2023-09-18T13:45:05;17.50;99.90
49765;DHT22;35657;51.204;-4.130;2023-09-18T13:47:32;17.60;99.90
49765;DHT22;35657;51.204;-4.130;2023-09-18T13:49:59;17.60;99.90
49765;DHT22;35657;51.204;-4.130;2023-09-18T13:52:29;17.50;99.90
49765;DHT22;35657;51.204;-4.130;2023-09-18T13:54:55;17.70;99.90
49765;DHT22;35657;51.204;-4.130;2023-09-18T13:57:21;17.70;99.90
49765;DHT22;35657;51.204;-4.130;2023-09-18T13:59:50;17.70;99.90
49765;DHT22;35657;51.204;-4.130;2023-09-18T14:02:16;17.40;99.90
49765;DHT22;35657;51.204;-4.130;2023-09-18T14:04:42;17.40;99.90
49765;DHT22;35657;51.204;-4.130;2023-09-18T14:07:09;17.50;99.90
49765;DHT22;35657;51.204;-4.130;2023-09-18T14:09:36;17.50;99.90
49765;DHT22;35657;51.204;-4.130;2023-09-18T14:12:02;17.40;99.90
49765;DHT22;35657;51.204;-4.130;2023-09-18T14:14:29;17.50;99.90
49765;DHT22;35657;51.204;-4.130;2023-09-18T14:16:55;17.50;99.90
49765;DHT22;35657;51.204;-4.130;2023-09-18T14:19:21;17.30;99.90
49765;DHT22;35657;51.204;-4.130;2023-09-18T14:21:46;17.50;99.90
49765;DHT22;35657;51.204;-4.130;2023-09-18T14:24:15;17.50;99.90
49765;DHT22;35657;51.204;-4.130;2023-09-18T14:26:43;17.40;99.90
49765;DHT22;35657;51.204;-4.130;2023-09-18T14:29:12;17.50;99.90
49765;DHT22;35657;51.204;-4.130;2023-09-18T14:31:38;17.40;99.90
49765;DHT22;35657;51.204;-4.130;2023-09-18T14:34:04;17.60;99.90
49765;DHT22;35657;51.204;-4.130;2023-09-18T14:36:34;17.70;99.90
49765;DHT22;35657;51.204;-4.130;2023-09-18T14:39:00;17.70;99.90
49765;DHT22;35657;51.204;-4.130;2023-09-18T14:41:27;17.70;99.90
49765;DHT22;35657;51.204;-4.130;2023-09-18T14:43:53;17.80;99.90
49765;DHT22;35657;51.204;-4.130;2023-09-18T14:46:19;17.80;99.90
49765;DHT22;35657;51.204;-4.130;2023-09-18T14:48:45;17.70;99.90
49765;DHT22;35657;51.204;-4.130;2023-09-18T14:51:11;17.70;99.90
49765;DHT22;35657;51.204;-4.130;2023-09-18T14:53:37;17.70;99.90
49765;DHT22;35657;51.204;-4.130;2023-09-18T14:56:03;17.60;99.90
49765;DHT22;35657;51.204;-4.130;2023-09-18T14:58:33;17.70;99.90
49765;DHT22;35657;51.204;-4.130;2023-09-18T15:00:59;17.60;99.90
49765;DHT22;35657;51.204;-4.130;2023-09-18T15:03:25;17.60;99.90
49765;DHT22;35657;51.204;-4.130;2023-09-18T15:05:52;17.50;99.90
49765;DHT22;35657;51.204;-4.130;2023-09-18T15:08:19;17.50;99.90
49765;DHT22;35657;51.204;-4.130;2023-09-18T15:10:47;17.60;99.90
49765;DHT22;35657;51.204;-4.130;2023-09-18T15:13:13;17.60;99.90
49765;DHT22;35657;51.204;-4.130;2023-09-18T15:15:40;17.60;99.90
49765;DHT22;35657;51.204;-4.130;2023-09-18T15:18:06;17.60;99.90
49765;DHT22;35657;51.204;-4.130;2023-09-18T15:20:32;17.70;99.90
49765;DHT22;35657;51.204;-4.130;2023-09-18T15:22:58;17.60;99.90
49765;DHT22;35657;51.204;-4.130;2023-09-18T15:25:23;17.60;99.90
49765;DHT22;35657;51.204;-4.130;2023-09-18T15:27:49;17.60;99.90
49765;DHT22;35657;51.204;-4.130;2023-09-18T15:30:15;17.50;99.90
49765;DHT22;35657;51.204;-4.130;2023-09-18T15:32:52;17.50;99.90
49765;DHT22;35657;51.204;-4.130;2023-09-18T15:35:22;17.40;99.90
49765;DHT22;35657;51.204;-4.130;2023-09-18T15:37:52;17.50;99.90
49765;DHT22;35657;51.204;-4.130;2023-09-18T15:40:19;17.50;99.90
49765;DHT22;35657;51.204;-4.130;2023-09-18T15:42:48;17.50;99.90